createdAt,value
2023-05-19T00:02:26.137Z,5.28
2023-05-19T00:04:53.256Z,7.00
2023-05-19T00:07:20.467Z,9.80
2023-05-19T00:09:47.524Z,6.97
2023-05-19T00:12:14.781Z,7.35
2023-05-19T00:14:41.863Z,6.70
2023-05-19T00:17:09.132Z,6.72
2023-05-19T00:19:35.965Z,7.60
2023-05-19T00:22:02.811Z,5.93
2023-05-19T00:24:29.625Z,6.78
2023-05-19T00:26:56.440Z,5.15
2023-05-19T00:29:23.208Z,5.38
2023-05-19T00:31:50.023Z,6.78
2023-05-19T00:34:16.817Z,7.00
2023-05-19T00:36:43.700Z,6.32
2023-05-19T00:39:13.933Z,6.05
2023-05-19T00:41:40.814Z,6.97
2023-05-19T00:44:07.868Z,9.48
2023-05-19T00:46:34.744Z,7.22
2023-05-19T00:49:01.601Z,7.80
2023-05-19T00:51:29.643Z,6.10
2023-05-19T00:53:57.556Z,6.63
2023-05-19T00:56:24.336Z,8.57
2023-05-19T00:58:51.846Z,6.45
2023-05-19T01:01:18.968Z,8.45
2023-05-19T01:03:47.223Z,8.25
2023-05-19T01:06:15.019Z,6.30
2023-05-19T01:08:42.190Z,6.65
2023-05-19T01:11:09.163Z,7.35
2023-05-19T01:13:36.697Z,8.07
2023-05-19T01:16:21.405Z,9.20
2023-05-19T01:18:56.206Z,8.02
2023-05-19T01:21:44.365Z,5.43
2023-05-19T01:24:42.343Z,7.03
2023-05-19T01:27:23.402Z,7.35
2023-05-19T01:30:27.986Z,7.82
2023-05-19T01:32:59.673Z,6.68
2023-05-19T01:35:28.020Z,6.32
2023-05-19T01:37:57.732Z,7.30
2023-05-19T01:40:25.686Z,6.15
2023-05-19T01:42:58.295Z,6.68
2023-05-19T01:45:27.441Z,7.07
2023-05-19T01:47:57.076Z,6.22
2023-05-19T01:50:24.079Z,7.45
2023-05-19T01:52:51.367Z,5.65
2023-05-19T01:55:18.365Z,6.32
2023-05-19T01:58:03.228Z,4.85
2023-05-19T02:00:52.105Z,6.03
2023-05-19T02:03:34.052Z,6.28
2023-05-19T02:06:34.857Z,6.30
2023-05-19T02:09:16.302Z,7.13
2023-05-19T02:12:02.417Z,6.75
2023-05-19T02:14:48.001Z,6.35
2023-05-19T02:17:16.331Z,5.32
2023-05-19T02:19:43.447Z,7.32
2023-05-19T02:22:10.465Z,8.38
2023-05-19T02:24:37.701Z,4.72
2023-05-19T02:27:04.752Z,6.57
2023-05-19T02:29:31.533Z,5.30
2023-05-19T02:32:00.461Z,7.70
2023-05-19T02:34:27.293Z,6.13
2023-05-19T02:36:54.031Z,6.75
2023-05-19T02:39:20.806Z,7.80
2023-05-19T02:41:47.603Z,8.40
2023-05-19T02:44:14.587Z,7.43
2023-05-19T02:46:41.392Z,6.82
2023-05-19T02:49:08.186Z,5.05
2023-05-19T02:51:34.950Z,6.50
2023-05-19T02:54:01.809Z,5.97
2023-05-19T02:56:28.733Z,6.80
2023-05-19T02:58:56.166Z,5.97
2023-05-19T03:01:23.240Z,5.72
2023-05-19T03:03:50.176Z,6.95
2023-05-19T03:06:18.083Z,6.40
2023-05-19T03:08:45.150Z,5.85
2023-05-19T03:11:11.927Z,6.60
2023-05-19T03:13:38.849Z,7.35
2023-05-19T03:16:08.279Z,7.30
2023-05-19T03:18:35.273Z,5.93
2023-05-19T03:21:02.073Z,5.47
2023-05-19T03:23:28.898Z,6.63
2023-05-19T03:25:56.300Z,5.93
2023-05-19T03:28:23.476Z,5.07
2023-05-19T03:30:50.754Z,6.20
2023-05-19T03:33:20.216Z,10.60
2023-05-19T03:35:47.157Z,6.47
2023-05-19T03:38:15.129Z,4.63
2023-05-19T03:40:49.360Z,5.47
2023-05-19T03:43:16.286Z,6.07
2023-05-19T03:45:49.093Z,6.22
2023-05-19T03:48:34.393Z,5.93
2023-05-19T03:51:16.501Z,5.88
2023-05-19T03:53:45.633Z,4.87
2023-05-19T03:56:13.926Z,7.45
2023-05-19T03:58:45.048Z,6.78
2023-05-19T04:01:12.307Z,5.55
2023-05-19T04:03:39.147Z,5.03
2023-05-19T04:06:06.539Z,4.43
2023-05-19T04:08:33.524Z,4.78
2023-05-19T04:11:00.360Z,5.85
2023-05-19T04:13:27.151Z,5.63
2023-05-19T04:15:53.978Z,7.72
2023-05-19T04:18:20.898Z,6.80
2023-05-19T04:20:47.771Z,5.28
2023-05-19T04:23:14.597Z,6.03
2023-05-19T04:25:41.964Z,6.47
2023-05-19T04:28:09.121Z,5.10
2023-05-19T04:30:38.673Z,4.30
2023-05-19T04:33:05.660Z,4.78
2023-05-19T04:35:32.873Z,5.05
2023-05-19T04:38:01.663Z,5.18
2023-05-19T04:40:31.802Z,4.38
2023-05-19T04:42:59.138Z,6.82
2023-05-19T04:45:26.365Z,4.10
2023-05-19T04:47:58.210Z,7.85
2023-05-19T04:50:25.342Z,5.40
2023-05-19T04:52:52.736Z,5.30
2023-05-19T04:55:19.648Z,4.47
2023-05-19T04:57:48.281Z,8.15
2023-05-19T05:00:15.611Z,5.82
2023-05-19T05:02:53.728Z,6.10
2023-05-19T05:05:21.799Z,6.40
2023-05-19T05:07:49.508Z,5.55
2023-05-19T05:10:16.758Z,3.63
2023-05-19T05:12:43.886Z,4.78
2023-05-19T05:15:11.370Z,5.25
2023-05-19T05:17:38.868Z,3.10
2023-05-19T05:20:06.907Z,4.57
2023-05-19T05:22:34.450Z,5.20
2023-05-19T05:25:02.058Z,6.07
2023-05-19T05:27:29.030Z,6.00
2023-05-19T05:29:58.625Z,5.35
2023-05-19T05:32:27.259Z,5.25
2023-05-19T05:34:54.958Z,5.25
2023-05-19T05:37:22.048Z,6.25
2023-05-19T05:39:48.994Z,7.22
2023-05-19T05:42:16.242Z,5.75
2023-05-19T05:44:43.530Z,5.65
2023-05-19T05:47:12.225Z,5.25
2023-05-19T05:49:40.253Z,5.10
2023-05-19T05:52:08.993Z,5.28
2023-05-19T05:54:42.449Z,4.97
2023-05-19T05:57:10.309Z,4.25
2023-05-19T05:59:38.665Z,3.90
2023-05-19T06:02:05.640Z,3.90
2023-05-19T06:04:33.184Z,5.13
2023-05-19T06:07:01.716Z,6.60
2023-05-19T06:09:32.983Z,3.97
2023-05-19T06:12:00.320Z,5.63
2023-05-19T06:14:30.991Z,4.65
2023-05-19T06:17:35.701Z,4.70
2023-05-19T06:20:03.429Z,3.95
2023-05-19T06:22:30.542Z,4.55
2023-05-19T06:24:57.491Z,10.30
2023-05-19T06:27:24.417Z,10.75
2023-05-19T06:29:51.420Z,12.57
2023-05-19T06:32:18.483Z,15.30
2023-05-19T06:34:46.123Z,14.00
2023-05-19T06:37:16.999Z,12.90
2023-05-19T06:39:43.971Z,12.73
2023-05-19T06:42:10.728Z,17.85
2023-05-19T06:44:57.248Z,11.50
2023-05-19T06:47:24.456Z,13.85
2023-05-19T06:49:55.360Z,11.85
2023-05-19T06:52:25.606Z,18.98
2023-05-19T06:54:53.325Z,13.65
2023-05-19T06:57:20.246Z,9.65
2023-05-19T06:59:47.170Z,11.30
2023-05-19T07:02:14.791Z,13.25
2023-05-19T07:04:43.110Z,14.75
2023-05-19T07:07:12.170Z,14.90
2023-05-19T07:09:39.443Z,14.88
2023-05-19T07:12:06.717Z,10.85
2023-05-19T07:14:33.660Z,11.77
2023-05-19T07:17:00.484Z,15.82
2023-05-19T07:19:27.564Z,12.05
2023-05-19T07:21:55.493Z,10.13
2023-05-19T07:24:22.512Z,12.27
2023-05-19T07:26:49.396Z,10.75
2023-05-19T07:29:16.270Z,14.35
2023-05-19T07:31:43.143Z,8.20
2023-05-19T07:34:09.970Z,14.63
2023-05-19T07:36:36.854Z,8.35
2023-05-19T07:39:03.791Z,8.85
2023-05-19T07:41:30.665Z,10.15
2023-05-19T07:43:57.463Z,13.60
2023-05-19T07:46:24.247Z,7.40
2023-05-19T07:48:51.014Z,12.55
2023-05-19T07:51:17.804Z,12.40
2023-05-19T07:53:44.549Z,15.20
2023-05-19T07:56:11.728Z,12.07
2023-05-19T07:58:38.495Z,12.20
2023-05-19T08:01:05.792Z,9.77
2023-05-19T08:03:33.071Z,13.63
2023-05-19T08:06:00.082Z,14.13
2023-05-19T08:08:26.913Z,11.70
2023-05-19T08:10:53.713Z,11.68
2023-05-19T08:13:20.622Z,10.68
2023-05-19T08:15:47.387Z,11.20
2023-05-19T08:18:14.278Z,13.27
2023-05-19T08:20:41.100Z,13.02
2023-05-19T08:23:07.854Z,8.82
2023-05-19T08:25:34.593Z,9.55
2023-05-19T08:28:01.508Z,9.23
2023-05-19T08:30:28.277Z,9.38
2023-05-19T08:32:55.066Z,12.93
2023-05-19T08:35:21.964Z,10.85
2023-05-19T08:37:48.729Z,11.13
2023-05-19T08:40:18.016Z,17.85
2023-05-19T08:42:45.882Z,7.80
2023-05-19T08:45:12.992Z,9.68
2023-05-19T08:47:43.986Z,14.85
2023-05-19T08:50:11.885Z,8.18
2023-05-19T08:52:57.857Z,17.10
2023-05-19T08:55:42.281Z,15.90
2023-05-19T08:58:09.451Z,31.65
2023-05-19T09:00:37.064Z,19.55
2023-05-19T09:03:17.630Z,30.30
2023-05-19T09:05:49.965Z,14.18
2023-05-19T09:08:16.749Z,24.88
2023-05-19T09:10:44.217Z,24.30
2023-05-19T09:13:11.074Z,15.52
2023-05-19T09:15:39.886Z,11.32
2023-05-19T09:18:12.363Z,11.60
2023-05-19T09:20:46.099Z,12.65
2023-05-19T09:23:18.476Z,9.15
2023-05-19T09:25:52.552Z,10.00
2023-05-19T09:28:35.273Z,11.40
2023-05-19T09:31:06.725Z,8.80
2023-05-19T09:33:36.210Z,9.63
2023-05-19T09:36:06.013Z,8.68
2023-05-19T09:38:33.440Z,12.02
2023-05-19T09:41:01.200Z,6.68
2023-05-19T09:43:29.265Z,10.57
2023-05-19T09:46:09.189Z,10.52
2023-05-19T09:48:37.169Z,8.07
2023-05-19T09:51:06.248Z,7.72
2023-05-19T09:53:34.399Z,11.02
2023-05-19T09:56:02.223Z,6.20
2023-05-19T09:58:35.091Z,7.47
2023-05-19T10:01:02.309Z,7.43
2023-05-19T10:03:30.148Z,8.77
2023-05-19T10:05:57.348Z,5.97
2023-05-19T10:08:26.587Z,15.10
2023-05-19T10:10:53.534Z,13.15
2023-05-19T10:13:21.678Z,7.55
2023-05-19T10:15:57.959Z,7.90
2023-05-19T10:18:27.950Z,10.60
2023-05-19T10:20:55.152Z,11.43
2023-05-19T10:23:22.556Z,10.80
2023-05-19T10:25:51.394Z,16.17
2023-05-19T10:28:21.032Z,19.88
2023-05-19T10:30:49.745Z,18.23
2023-05-19T10:33:18.177Z,8.85
2023-05-19T10:36:14.467Z,15.45
2023-05-19T10:39:25.551Z,20.17
2023-05-19T10:42:08.984Z,19.38
2023-05-19T10:44:54.120Z,21.38
2023-05-19T10:47:27.684Z,11.25
2023-05-19T10:49:54.890Z,9.73
2023-05-19T10:52:23.473Z,10.60
2023-05-19T10:54:51.356Z,7.47
2023-05-19T10:57:18.386Z,10.93
2023-05-19T10:59:45.214Z,18.10
2023-05-19T11:02:41.843Z,14.60
2023-05-19T11:05:18.117Z,9.75
2023-05-19T11:07:55.292Z,8.98
2023-05-19T11:10:25.656Z,10.25
2023-05-19T11:12:52.537Z,13.07
2023-05-19T11:15:25.575Z,6.53
2023-05-19T11:17:52.763Z,8.77
2023-05-19T11:20:27.319Z,8.38
2023-05-19T11:23:19.086Z,12.77
2023-05-19T11:25:51.428Z,19.42
2023-05-19T11:28:20.169Z,10.55
2023-05-19T11:30:51.874Z,15.52
2023-05-19T11:33:20.101Z,12.43
2023-05-19T11:35:49.282Z,14.67
2023-05-19T11:38:17.664Z,9.63
2023-05-19T11:40:44.738Z,8.88
2023-05-19T11:43:11.519Z,9.55
2023-05-19T11:45:38.487Z,5.82
2023-05-19T11:48:06.966Z,8.98
2023-05-19T11:50:35.270Z,9.85
2023-05-19T11:53:02.570Z,12.48
2023-05-19T11:55:30.280Z,13.32
2023-05-19T11:58:04.467Z,10.40
2023-05-19T12:00:40.232Z,7.43
2023-05-19T12:03:09.194Z,15.50
2023-05-19T12:05:44.750Z,15.93
2023-05-19T12:08:12.415Z,13.65
2023-05-19T12:10:40.000Z,9.60
2023-05-19T12:13:10.687Z,6.75
2023-05-19T12:15:38.764Z,5.78
2023-05-19T12:18:05.863Z,7.35
2023-05-19T12:20:35.292Z,7.78
2023-05-19T12:23:02.599Z,8.48
2023-05-19T12:25:30.245Z,5.45
2023-05-19T12:28:02.871Z,5.82
2023-05-19T12:30:31.805Z,6.90
2023-05-19T12:32:59.167Z,7.30
2023-05-19T12:35:37.518Z,7.90
2023-05-19T12:38:05.021Z,6.55
2023-05-19T12:40:33.955Z,6.38
2023-05-19T12:43:01.407Z,8.38
2023-05-19T12:45:28.765Z,4.45
2023-05-19T12:47:56.193Z,6.18
2023-05-19T12:50:30.578Z,10.02
2023-05-19T12:52:59.534Z,4.85
2023-05-19T12:55:26.357Z,4.95
2023-05-19T12:57:56.765Z,7.38
2023-05-19T13:00:28.033Z,6.28
2023-05-19T13:03:05.398Z,6.68
2023-05-19T13:05:40.292Z,6.93
2023-05-19T13:08:12.005Z,7.45
2023-05-19T13:10:40.298Z,9.45
2023-05-19T13:13:08.332Z,5.93
2023-05-19T13:15:38.051Z,6.30
2023-05-19T13:18:08.791Z,4.72
2023-05-19T13:20:37.366Z,3.85
2023-05-19T13:25:33.957Z,6.70
2023-05-19T13:28:03.826Z,5.72
2023-05-19T13:30:31.199Z,7.28
2023-05-19T13:32:58.023Z,6.65
2023-05-19T13:35:24.897Z,10.35
2023-05-19T13:37:51.807Z,9.95
2023-05-19T13:40:19.147Z,8.25
2023-05-19T13:42:46.122Z,12.10
2023-05-19T13:45:13.006Z,16.05
2023-05-19T13:47:39.890Z,8.95
2023-05-19T13:50:07.779Z,9.50
2023-05-19T13:52:35.861Z,10.30
2023-05-19T13:55:03.950Z,8.40
2023-05-19T13:57:30.868Z,10.15
2023-05-19T14:00:03.184Z,13.15
2023-05-19T14:02:40.638Z,11.43
2023-05-19T14:05:10.204Z,7.90
2023-05-19T14:07:37.253Z,10.27
2023-05-19T14:10:06.867Z,12.30
2023-05-19T14:12:55.229Z,8.10
2023-05-19T14:15:25.456Z,8.23
2023-05-19T14:17:53.378Z,9.23
2023-05-19T14:20:20.311Z,11.68
2023-05-19T14:22:47.188Z,9.65
2023-05-19T14:25:14.080Z,10.43
2023-05-19T14:27:41.013Z,8.32
2023-05-19T14:30:08.632Z,8.40
2023-05-19T14:32:36.149Z,12.70
2023-05-19T14:35:03.280Z,10.73
2023-05-19T14:37:31.857Z,10.10
2023-05-19T14:42:25.825Z,13.55
2023-05-19T14:44:52.754Z,9.25
2023-05-19T14:47:19.571Z,9.02
2023-05-19T14:49:46.423Z,9.40
2023-05-19T14:52:13.304Z,10.25
2023-05-19T14:54:40.126Z,12.98
2023-05-19T14:57:08.176Z,15.20
2023-05-19T14:59:38.505Z,10.18
2023-05-19T15:02:05.779Z,7.43
2023-05-19T15:04:32.729Z,10.60
2023-05-19T15:07:09.604Z,7.75
2023-05-19T15:09:40.361Z,12.38
2023-05-19T15:12:45.475Z,9.32
2023-05-19T15:15:12.408Z,10.75
2023-05-19T15:17:39.503Z,13.70
2023-05-19T15:20:07.051Z,12.77
2023-05-19T15:22:34.366Z,9.20
2023-05-19T15:27:56.188Z,11.68
2023-05-19T15:30:23.136Z,24.92
2023-05-19T15:32:50.355Z,13.25
2023-05-19T15:35:17.626Z,7.97
2023-05-19T15:37:44.815Z,11.20
2023-05-19T15:40:12.621Z,11.25
2023-05-19T15:42:39.949Z,12.00
2023-05-19T15:45:08.277Z,12.82
2023-05-19T15:47:38.372Z,12.60
2023-05-19T15:50:06.182Z,10.40
2023-05-19T15:52:34.545Z,13.10
2023-05-19T15:55:02.016Z,11.23
2023-05-19T15:57:29.099Z,14.25
2023-05-19T15:59:56.016Z,16.42
2023-05-19T16:02:23.025Z,19.88
2023-05-19T16:04:49.986Z,11.27
2023-05-19T16:07:17.027Z,8.93
2023-05-19T16:09:44.063Z,18.05
2023-05-19T16:12:10.886Z,11.65
2023-05-19T16:14:37.909Z,11.65
2023-05-19T16:17:10.910Z,20.88
2023-05-19T16:19:38.297Z,11.02
2023-05-19T16:22:05.385Z,11.90
2023-05-19T16:24:32.225Z,28.58
2023-05-19T16:26:59.122Z,7.75
2023-05-19T16:29:25.873Z,12.25
2023-05-19T16:31:52.726Z,9.27
2023-05-19T16:34:19.551Z,11.15
2023-05-19T16:36:46.338Z,7.13
2023-05-19T16:39:13.349Z,7.80
2023-05-19T16:41:40.236Z,9.63
2023-05-19T16:44:07.025Z,15.45
2023-05-19T16:46:34.106Z,24.33
2023-05-19T16:49:01.069Z,17.42
2023-05-19T16:51:27.908Z,19.85
2023-05-19T16:53:54.746Z,21.65
2023-05-19T16:56:21.996Z,21.58
2023-05-19T16:58:49.372Z,16.92
2023-05-19T17:01:17.452Z,27.42
2023-05-19T17:03:44.374Z,11.40
2023-05-19T17:06:11.291Z,6.75
2023-05-19T17:08:38.200Z,9.50
2023-05-19T17:11:09.601Z,7.00
2023-05-19T17:13:36.701Z,7.50
2023-05-19T17:16:03.673Z,8.25
2023-05-19T17:18:31.453Z,10.30
2023-05-19T17:21:03.771Z,4.57
2023-05-19T17:23:31.721Z,7.47
2023-05-19T17:25:59.235Z,7.45
2023-05-19T17:28:26.478Z,7.28
2023-05-19T17:30:53.346Z,8.82
2023-05-19T17:33:20.877Z,9.43
2023-05-19T17:35:47.895Z,6.97
2023-05-19T17:38:14.828Z,17.05
2023-05-19T17:40:42.137Z,7.22
2023-05-19T17:43:09.391Z,7.65
2023-05-19T17:45:36.294Z,13.27
2023-05-19T17:48:03.447Z,8.70
2023-05-19T17:50:30.749Z,15.63
2023-05-19T17:52:58.183Z,10.68
2023-05-19T17:55:30.042Z,9.93
2023-05-19T17:57:57.472Z,9.48
2023-05-19T18:00:25.425Z,12.38
2023-05-19T18:02:53.288Z,12.63
2023-05-19T18:05:20.767Z,13.90
2023-05-19T18:07:48.306Z,9.50
2023-05-19T18:10:16.290Z,10.23
2023-05-19T18:12:43.181Z,9.70
2023-05-19T18:15:10.605Z,8.88
2023-05-19T18:17:37.526Z,8.40
2023-05-19T18:20:05.342Z,5.65
2023-05-19T18:22:32.801Z,6.40
2023-05-19T18:24:59.750Z,5.68
2023-05-19T18:27:27.823Z,14.00
2023-05-19T18:29:54.803Z,8.13
2023-05-19T18:32:21.585Z,11.30
2023-05-19T18:34:48.356Z,7.53
2023-05-19T18:37:15.188Z,6.72
2023-05-19T18:39:42.064Z,11.38
2023-05-19T18:42:09.222Z,5.85
2023-05-19T18:44:36.136Z,7.07
2023-05-19T18:47:03.369Z,9.55
2023-05-19T18:49:30.375Z,12.25
2023-05-19T18:51:57.225Z,10.27
2023-05-19T18:54:24.882Z,6.35
2023-05-19T18:56:51.887Z,8.80
2023-05-19T18:59:19.052Z,11.00
2023-05-19T19:01:46.007Z,8.30
2023-05-19T19:04:14.769Z,7.68
2023-05-19T19:06:42.005Z,7.50
2023-05-19T19:09:08.955Z,9.68
2023-05-19T19:11:35.875Z,5.13
2023-05-19T19:14:02.713Z,7.55
2023-05-19T19:16:29.700Z,8.07
2023-05-19T19:18:56.583Z,7.40
2023-05-19T19:21:24.196Z,10.82
2023-05-19T19:23:56.052Z,7.18
2023-05-19T19:26:24.969Z,9.95
2023-05-19T19:28:51.782Z,14.98
2023-05-19T19:31:18.725Z,10.50
2023-05-19T19:33:45.623Z,8.63
2023-05-19T19:36:12.529Z,10.00
2023-05-19T19:38:39.548Z,10.48
2023-05-19T19:41:06.345Z,9.57
2023-05-19T19:43:33.203Z,6.97
2023-05-19T19:46:01.105Z,7.68
2023-05-19T19:48:28.541Z,7.93
2023-05-19T19:50:58.873Z,23.67
2023-05-19T19:53:25.795Z,8.15
2023-05-19T19:56:00.023Z,11.68
2023-05-19T19:58:28.026Z,11.68
2023-05-19T20:00:59.693Z,15.20
2023-05-19T20:03:27.091Z,12.43
2023-05-19T20:05:55.220Z,13.25
2023-05-19T20:08:23.078Z,14.30
2023-05-19T20:10:49.988Z,19.92
2023-05-19T20:13:17.349Z,13.90
2023-05-19T20:15:44.608Z,13.63
2023-05-19T20:18:12.023Z,12.70
2023-05-19T20:20:39.521Z,12.00
2023-05-19T20:23:07.608Z,18.80
2023-05-19T20:25:50.161Z,15.70
2023-05-19T20:28:25.890Z,9.65
2023-05-19T20:30:52.705Z,19.85
2023-05-19T20:33:19.467Z,13.50
2023-05-19T20:35:46.206Z,12.48
2023-05-19T20:38:12.992Z,12.93
2023-05-19T20:40:39.851Z,10.65
2023-05-19T20:43:06.869Z,10.43
2023-05-19T20:45:33.937Z,14.60
2023-05-19T20:48:02.726Z,8.82
2023-05-19T20:50:29.791Z,9.65
2023-05-19T20:52:56.579Z,11.93
2023-05-19T20:55:23.375Z,10.13
2023-05-19T20:57:50.350Z,11.63
2023-05-19T21:00:17.455Z,11.63
2023-05-19T21:02:44.477Z,9.25
2023-05-19T21:05:11.524Z,9.43
2023-05-19T21:07:38.435Z,13.98
2023-05-19T21:10:05.921Z,6.53
2023-05-19T21:12:34.228Z,8.43
2023-05-19T21:15:02.172Z,9.30
2023-05-19T21:17:29.287Z,9.48
2023-05-19T21:19:59.357Z,10.75
2023-05-19T21:22:26.709Z,9.27
2023-05-19T21:24:54.397Z,8.00
2023-05-19T21:27:21.844Z,10.88
2023-05-19T21:29:55.923Z,11.35
2023-05-19T21:32:22.739Z,9.10
2023-05-19T21:34:49.614Z,15.95
2023-05-19T21:37:17.625Z,6.93
2023-05-19T21:39:44.923Z,10.23
2023-05-19T21:42:11.835Z,12.85
2023-05-19T21:44:38.808Z,8.90
2023-05-19T21:47:05.717Z,8.57
2023-05-19T21:49:32.610Z,9.32
2023-05-19T21:51:59.394Z,7.53
2023-05-19T21:54:26.375Z,7.32
2023-05-19T21:56:53.323Z,4.95
2023-05-19T21:59:23.216Z,8.80
2023-05-19T22:01:50.358Z,6.45
2023-05-19T22:04:18.496Z,8.10
2023-05-19T22:06:45.667Z,6.30
2023-05-19T22:09:12.841Z,7.47
2023-05-19T22:11:39.900Z,6.60
2023-05-19T22:14:07.002Z,6.47
2023-05-19T22:16:34.274Z,6.05
2023-05-19T22:19:01.305Z,8.48
2023-05-19T22:21:28.149Z,8.43
2023-05-19T22:23:55.000Z,6.60
2023-05-19T22:26:22.131Z,5.70
2023-05-19T22:28:49.792Z,3.78
2023-05-19T22:31:17.045Z,5.53
2023-05-19T22:33:43.888Z,7.32
2023-05-19T22:36:11.115Z,6.50
2023-05-19T22:38:37.989Z,5.85
2023-05-19T22:41:05.084Z,4.55
2023-05-19T22:43:32.949Z,6.60
2023-05-19T22:45:59.808Z,6.03
2023-05-19T22:48:26.718Z,7.45
2023-05-19T22:50:53.525Z,8.55
2023-05-19T22:53:20.375Z,5.38
2023-05-19T22:55:47.494Z,5.72
2023-05-19T22:58:14.310Z,7.03
2023-05-19T23:00:41.158Z,6.03
2023-05-19T23:03:07.954Z,6.40
2023-05-19T23:05:35.052Z,4.35
2023-05-19T23:08:02.194Z,6.22
2023-05-19T23:10:28.963Z,5.57
2023-05-19T23:12:55.762Z,6.60
2023-05-19T23:15:22.589Z,5.13
2023-05-19T23:17:49.548Z,4.47
2023-05-19T23:20:16.420Z,5.07
2023-05-19T23:22:43.378Z,6.25
2023-05-19T23:25:10.295Z,7.70
2023-05-19T23:27:37.062Z,5.35
2023-05-19T23:30:04.328Z,4.18
2023-05-19T23:32:31.133Z,8.50
2023-05-19T23:34:57.995Z,3.92
2023-05-19T23:37:24.944Z,4.97
2023-05-19T23:39:51.757Z,6.85
2023-05-19T23:42:18.618Z,7.60
2023-05-19T23:44:45.598Z,5.25
2023-05-19T23:47:12.390Z,5.35
2023-05-19T23:49:39.176Z,7.22
2023-05-19T23:52:06.421Z,6.93
2023-05-19T23:54:33.166Z,4.65
2023-05-19T23:57:02.563Z,5.75
2023-05-19T23:59:29.334Z,4.70
